sensor_id;sensor_type;location;lat;lon;timestamp;P1;durP1;ratioP1;P2;durP2;ratioP2
66546;SDS011;53400;50.364;14.874;2023-04-25T00:02:12;6.10;;;2.75;;
66546;SDS011;53400;50.364;14.874;2023-04-25T00:04:46;5.57;;;2.75;;
66546;SDS011;53400;50.364;14.874;2023-04-25T00:07:26;7.03;;;2.90;;
66546;SDS011;53400;50.364;14.874;2023-04-25T00:10:00;5.65;;;2.78;;
66546;SDS011;53400;50.364;14.874;2023-04-25T00:12:39;6.82;;;2.60;;
66546;SDS011;53400;50.364;14.874;2023-04-25T00:15:12;6.60;;;2.92;;
66546;SDS011;53400;50.364;14.874;2023-04-25T00:17:42;6.53;;;3.13;;
66546;SDS011;53400;50.364;14.874;2023-04-25T00:20:16;7.40;;;3.28;;
66546;SDS011;53400;50.364;14.874;2023-04-25T00:22:47;6.30;;;2.85;;
66546;SDS011;53400;50.364;14.874;2023-04-25T00:25:24;7.05;;;3.08;;
66546;SDS011;53400;50.364;14.874;2023-04-25T00:27:52;7.53;;;3.08;;
66546;SDS011;53400;50.364;14.874;2023-04-25T00:30:25;7.55;;;3.42;;
66546;SDS011;53400;50.364;14.874;2023-04-25T00:32:52;8.70;;;3.72;;
66546;SDS011;53400;50.364;14.874;2023-04-25T00:35:24;7.40;;;3.70;;
66546;SDS011;53400;50.364;14.874;2023-04-25T00:37:53;10.98;;;3.63;;
66546;SDS011;53400;50.364;14.874;2023-04-25T00:40:25;7.45;;;3.50;;
66546;SDS011;53400;50.364;14.874;2023-04-25T00:42:58;6.40;;;2.83;;
66546;SDS011;53400;50.364;14.874;2023-04-25T00:45:27;7.85;;;3.53;;
66546;SDS011;53400;50.364;14.874;2023-04-25T00:48:01;6.75;;;3.55;;
66546;SDS011;53400;50.364;14.874;2023-04-25T00:50:40;7.53;;;3.58;;
66546;SDS011;53400;50.364;14.874;2023-04-25T00:53:11;6.50;;;3.10;;
66546;SDS011;53400;50.364;14.874;2023-04-25T00:55:41;6.50;;;3.47;;
66546;SDS011;53400;50.364;14.874;2023-04-25T00:58:08;6.55;;;3.38;;
66546;SDS011;53400;50.364;14.874;2023-04-25T01:00:36;7.90;;;3.17;;
66546;SDS011;53400;50.364;14.874;2023-04-25T01:03:15;7.65;;;3.40;;
66546;SDS011;53400;50.364;14.874;2023-04-25T01:06:01;6.38;;;3.22;;
66546;SDS011;53400;50.364;14.874;2023-04-25T01:08:34;7.28;;;3.70;;
66546;SDS011;53400;50.364;14.874;2023-04-25T01:11:07;6.47;;;3.42;;
66546;SDS011;53400;50.364;14.874;2023-04-25T01:13:35;7.15;;;3.78;;
66546;SDS011;53400;50.364;14.874;2023-04-25T01:16:06;7.72;;;3.78;;
66546;SDS011;53400;50.364;14.874;2023-04-25T01:18:38;6.57;;;3.45;;
66546;SDS011;53400;50.364;14.874;2023-04-25T01:21:22;7.50;;;3.50;;
66546;SDS011;53400;50.364;14.874;2023-04-25T01:24:03;7.20;;;3.30;;
66546;SDS011;53400;50.364;14.874;2023-04-25T01:26:35;7.40;;;3.72;;
66546;SDS011;53400;50.364;14.874;2023-04-25T01:29:06;6.82;;;3.53;;
66546;SDS011;53400;50.364;14.874;2023-04-25T01:31:36;6.75;;;3.33;;
66546;SDS011;53400;50.364;14.874;2023-04-25T01:34:08;7.50;;;3.45;;
66546;SDS011;53400;50.364;14.874;2023-04-25T01:36:53;7.95;;;3.70;;
66546;SDS011;53400;50.364;14.874;2023-04-25T01:39:31;9.30;;;4.07;;
66546;SDS011;53400;50.364;14.874;2023-04-25T01:42:02;7.63;;;3.38;;
66546;SDS011;53400;50.364;14.874;2023-04-25T01:44:32;8.60;;;4.05;;
66546;SDS011;53400;50.364;14.874;2023-04-25T01:47:05;7.15;;;3.40;;
66546;SDS011;53400;50.364;14.874;2023-04-25T01:49:40;7.55;;;3.33;;
66546;SDS011;53400;50.364;14.874;2023-04-25T01:52:11;7.70;;;3.72;;
66546;SDS011;53400;50.364;14.874;2023-04-25T01:54:44;8.75;;;3.90;;
66546;SDS011;53400;50.364;14.874;2023-04-25T01:57:20;7.13;;;3.92;;
66546;SDS011;53400;50.364;14.874;2023-04-25T02:00:05;8.60;;;4.07;;
66546;SDS011;53400;50.364;14.874;2023-04-25T02:02:43;13.45;;;4.28;;
66546;SDS011;53400;50.364;14.874;2023-04-25T02:05:15;9.15;;;4.45;;
66546;SDS011;53400;50.364;14.874;2023-04-25T02:08:00;8.48;;;4.10;;
66546;SDS011;53400;50.364;14.874;2023-04-25T02:10:27;8.73;;;4.50;;
66546;SDS011;53400;50.364;14.874;2023-04-25T02:12:58;8.75;;;4.20;;
66546;SDS011;53400;50.364;14.874;2023-04-25T02:15:38;9.50;;;4.70;;
66546;SDS011;53400;50.364;14.874;2023-04-25T02:18:20;9.18;;;4.47;;
66546;SDS011;53400;50.364;14.874;2023-04-25T02:20:48;11.25;;;4.38;;
66546;SDS011;53400;50.364;14.874;2023-04-25T02:23:27;8.60;;;4.25;;
66546;SDS011;53400;50.364;14.874;2023-04-25T02:25:59;9.23;;;4.18;;
66546;SDS011;53400;50.364;14.874;2023-04-25T02:28:41;9.80;;;4.20;;
66546;SDS011;53400;50.364;14.874;2023-04-25T02:31:08;9.57;;;4.88;;
66546;SDS011;53400;50.364;14.874;2023-04-25T02:33:35;9.43;;;4.38;;
66546;SDS011;53400;50.364;14.874;2023-04-25T02:36:04;7.78;;;4.00;;
66546;SDS011;53400;50.364;14.874;2023-04-25T02:38:36;9.10;;;4.63;;
66546;SDS011;53400;50.364;14.874;2023-04-25T02:41:14;10.65;;;5.00;;
66546;SDS011;53400;50.364;14.874;2023-04-25T02:43:50;9.60;;;4.25;;
66546;SDS011;53400;50.364;14.874;2023-04-25T02:46:45;10.80;;;4.78;;
66546;SDS011;53400;50.364;14.874;2023-04-25T02:49:14;7.68;;;4.05;;
66546;SDS011;53400;50.364;14.874;2023-04-25T02:51:42;9.27;;;5.40;;
66546;SDS011;53400;50.364;14.874;2023-04-25T02:54:13;9.68;;;4.88;;
66546;SDS011;53400;50.364;14.874;2023-04-25T02:56:41;9.93;;;4.88;;
66546;SDS011;53400;50.364;14.874;2023-04-25T02:59:22;10.82;;;4.88;;
66546;SDS011;53400;50.364;14.874;2023-04-25T03:02:05;10.27;;;5.07;;
66546;SDS011;53400;50.364;14.874;2023-04-25T03:04:40;8.60;;;4.43;;
66546;SDS011;53400;50.364;14.874;2023-04-25T03:07:07;9.35;;;5.07;;
66546;SDS011;53400;50.364;14.874;2023-04-25T03:09:39;9.40;;;4.95;;
66546;SDS011;53400;50.364;14.874;2023-04-25T03:12:06;11.23;;;5.68;;
66546;SDS011;53400;50.364;14.874;2023-04-25T03:14:44;9.00;;;4.80;;
66546;SDS011;53400;50.364;14.874;2023-04-25T03:17:17;10.23;;;5.30;;
66546;SDS011;53400;50.364;14.874;2023-04-25T03:19:54;9.32;;;4.97;;
66546;SDS011;53400;50.364;14.874;2023-04-25T03:22:25;10.20;;;4.95;;
66546;SDS011;53400;50.364;14.874;2023-04-25T03:24:59;9.82;;;5.35;;
66546;SDS011;53400;50.364;14.874;2023-04-25T03:27:40;10.45;;;5.63;;
66546;SDS011;53400;50.364;14.874;2023-04-25T03:30:09;9.70;;;4.38;;
66546;SDS011;53400;50.364;14.874;2023-04-25T03:32:40;9.25;;;4.57;;
66546;SDS011;53400;50.364;14.874;2023-04-25T03:35:12;9.48;;;4.97;;
66546;SDS011;53400;50.364;14.874;2023-04-25T03:37:46;10.50;;;5.22;;
66546;SDS011;53400;50.364;14.874;2023-04-25T03:40:29;10.40;;;5.45;;
66546;SDS011;53400;50.364;14.874;2023-04-25T03:43:01;9.68;;;5.43;;
66546;SDS011;53400;50.364;14.874;2023-04-25T03:45:34;10.52;;;5.55;;
66546;SDS011;53400;50.364;14.874;2023-04-25T03:48:08;9.32;;;4.75;;
66546;SDS011;53400;50.364;14.874;2023-04-25T03:50:48;9.73;;;4.85;;
66546;SDS011;53400;50.364;14.874;2023-04-25T03:53:56;10.80;;;5.30;;
66546;SDS011;53400;50.364;14.874;2023-04-25T03:56:31;9.57;;;5.13;;
66546;SDS011;53400;50.364;14.874;2023-04-25T03:59:01;9.48;;;4.72;;
66546;SDS011;53400;50.364;14.874;2023-04-25T04:01:44;9.55;;;4.72;;
66546;SDS011;53400;50.364;14.874;2023-04-25T04:04:22;12.35;;;4.95;;
66546;SDS011;53400;50.364;14.874;2023-04-25T04:06:59;11.68;;;5.45;;
66546;SDS011;53400;50.364;14.874;2023-04-25T04:09:35;10.90;;;5.25;;
66546;SDS011;53400;50.364;14.874;2023-04-25T04:12:09;9.65;;;4.80;;
66546;SDS011;53400;50.364;14.874;2023-04-25T04:14:44;9.40;;;5.05;;
66546;SDS011;53400;50.364;14.874;2023-04-25T04:17:39;11.23;;;5.25;;
66546;SDS011;53400;50.364;14.874;2023-04-25T04:20:11;14.10;;;6.28;;
66546;SDS011;53400;50.364;14.874;2023-04-25T04:22:49;14.35;;;5.40;;
66546;SDS011;53400;50.364;14.874;2023-04-25T04:25:19;9.73;;;5.30;;
66546;SDS011;53400;50.364;14.874;2023-04-25T04:27:50;10.93;;;5.35;;
66546;SDS011;53400;50.364;14.874;2023-04-25T04:30:26;10.20;;;5.25;;
66546;SDS011;53400;50.364;14.874;2023-04-25T04:33:16;11.60;;;5.22;;
66546;SDS011;53400;50.364;14.874;2023-04-25T04:35:46;10.77;;;5.60;;
66546;SDS011;53400;50.364;14.874;2023-04-25T04:38:18;10.40;;;5.22;;
66546;SDS011;53400;50.364;14.874;2023-04-25T04:40:45;10.48;;;5.72;;
66546;SDS011;53400;50.364;14.874;2023-04-25T04:43:20;10.60;;;5.55;;
66546;SDS011;53400;50.364;14.874;2023-04-25T04:45:54;13.35;;;5.53;;
66546;SDS011;53400;50.364;14.874;2023-04-25T04:48:32;9.98;;;5.18;;
66546;SDS011;53400;50.364;14.874;2023-04-25T04:51:07;13.10;;;5.32;;
66546;SDS011;53400;50.364;14.874;2023-04-25T04:53:38;11.48;;;5.45;;
66546;SDS011;53400;50.364;14.874;2023-04-25T04:56:12;10.90;;;5.57;;
66546;SDS011;53400;50.364;14.874;2023-04-25T04:58:47;10.70;;;5.10;;
66546;SDS011;53400;50.364;14.874;2023-04-25T05:01:19;9.82;;;5.20;;
66546;SDS011;53400;50.364;14.874;2023-04-25T05:03:56;11.80;;;5.80;;
66546;SDS011;53400;50.364;14.874;2023-04-25T05:06:27;13.35;;;6.28;;
66546;SDS011;53400;50.364;14.874;2023-04-25T05:09:00;11.27;;;5.57;;
66546;SDS011;53400;50.364;14.874;2023-04-25T05:11:38;11.65;;;5.75;;
66546;SDS011;53400;50.364;14.874;2023-04-25T05:14:13;14.40;;;6.53;;
66546;SDS011;53400;50.364;14.874;2023-04-25T05:16:43;11.75;;;5.90;;
66546;SDS011;53400;50.364;14.874;2023-04-25T05:19:16;14.27;;;6.30;;
66546;SDS011;53400;50.364;14.874;2023-04-25T05:21:46;13.45;;;7.05;;
66546;SDS011;53400;50.364;14.874;2023-04-25T05:24:18;12.00;;;6.43;;
66546;SDS011;53400;50.364;14.874;2023-04-25T05:26:50;13.85;;;6.47;;
66546;SDS011;53400;50.364;14.874;2023-04-25T05:29:33;12.77;;;7.13;;
66546;SDS011;53400;50.364;14.874;2023-04-25T05:32:05;11.57;;;6.15;;
66546;SDS011;53400;50.364;14.874;2023-04-25T05:34:56;14.35;;;7.45;;
66546;SDS011;53400;50.364;14.874;2023-04-25T05:37:28;11.93;;;6.95;;
66546;SDS011;53400;50.364;14.874;2023-04-25T05:40:08;13.60;;;6.72;;
66546;SDS011;53400;50.364;14.874;2023-04-25T05:42:40;12.10;;;6.50;;
66546;SDS011;53400;50.364;14.874;2023-04-25T05:45:10;11.65;;;6.25;;
66546;SDS011;53400;50.364;14.874;2023-04-25T05:47:37;12.00;;;6.43;;
66546;SDS011;53400;50.364;14.874;2023-04-25T05:50:09;11.93;;;6.45;;
66546;SDS011;53400;50.364;14.874;2023-04-25T05:52:38;13.35;;;5.90;;
66546;SDS011;53400;50.364;14.874;2023-04-25T05:55:12;11.02;;;6.43;;
66546;SDS011;53400;50.364;14.874;2023-04-25T05:57:46;11.23;;;5.85;;
66546;SDS011;53400;50.364;14.874;2023-04-25T06:00:19;12.18;;;6.47;;
66546;SDS011;53400;50.364;14.874;2023-04-25T06:02:51;9.80;;;5.88;;
66546;SDS011;53400;50.364;14.874;2023-04-25T06:05:24;11.88;;;6.47;;
66546;SDS011;53400;50.364;14.874;2023-04-25T06:07:51;11.07;;;6.05;;
66546;SDS011;53400;50.364;14.874;2023-04-25T06:10:18;13.18;;;6.40;;
66546;SDS011;53400;50.364;14.874;2023-04-25T06:12:47;11.63;;;6.35;;
66546;SDS011;53400;50.364;14.874;2023-04-25T06:15:22;12.30;;;6.85;;
66546;SDS011;53400;50.364;14.874;2023-04-25T06:17:48;12.55;;;7.03;;
66546;SDS011;53400;50.364;14.874;2023-04-25T06:20:15;11.93;;;6.47;;
66546;SDS011;53400;50.364;14.874;2023-04-25T06:22:45;12.77;;;6.32;;
66546;SDS011;53400;50.364;14.874;2023-04-25T06:25:13;12.48;;;6.85;;
66546;SDS011;53400;50.364;14.874;2023-04-25T06:27:39;13.10;;;6.68;;
66546;SDS011;53400;50.364;14.874;2023-04-25T06:30:07;12.73;;;7.03;;
66546;SDS011;53400;50.364;14.874;2023-04-25T06:32:37;10.00;;;5.72;;
66546;SDS011;53400;50.364;14.874;2023-04-25T06:35:05;11.45;;;6.00;;
66546;SDS011;53400;50.364;14.874;2023-04-25T06:37:34;11.18;;;6.50;;
66546;SDS011;53400;50.364;14.874;2023-04-25T06:40:11;9.75;;;6.18;;
66546;SDS011;53400;50.364;14.874;2023-04-25T06:42:39;9.43;;;6.03;;
66546;SDS011;53400;50.364;14.874;2023-04-25T06:45:10;11.88;;;6.68;;
66546;SDS011;53400;50.364;14.874;2023-04-25T06:47:43;12.10;;;6.53;;
66546;SDS011;53400;50.364;14.874;2023-04-25T06:50:15;11.43;;;6.95;;
66546;SDS011;53400;50.364;14.874;2023-04-25T06:52:45;11.57;;;6.05;;
66546;SDS011;53400;50.364;14.874;2023-04-25T06:55:15;12.23;;;6.20;;
66546;SDS011;53400;50.364;14.874;2023-04-25T06:57:45;14.32;;;6.32;;
66546;SDS011;53400;50.364;14.874;2023-04-25T07:00:14;10.13;;;6.88;;
66546;SDS011;53400;50.364;14.874;2023-04-25T07:02:47;10.35;;;5.68;;
66546;SDS011;53400;50.364;14.874;2023-04-25T07:05:19;11.93;;;6.43;;
66546;SDS011;53400;50.364;14.874;2023-04-25T07:07:48;12.25;;;6.97;;
66546;SDS011;53400;50.364;14.874;2023-04-25T07:10:16;11.07;;;6.93;;
66546;SDS011;53400;50.364;14.874;2023-04-25T07:12:47;14.05;;;7.57;;
66546;SDS011;53400;50.364;14.874;2023-04-25T07:15:20;12.80;;;6.63;;
66546;SDS011;53400;50.364;14.874;2023-04-25T07:17:56;14.35;;;7.57;;
66546;SDS011;53400;50.364;14.874;2023-04-25T07:20:22;12.13;;;7.53;;
66546;SDS011;53400;50.364;14.874;2023-04-25T07:22:56;12.60;;;7.23;;
66546;SDS011;53400;50.364;14.874;2023-04-25T07:25:32;13.60;;;7.68;;
66546;SDS011;53400;50.364;14.874;2023-04-25T07:28:01;13.73;;;7.53;;
66546;SDS011;53400;50.364;14.874;2023-04-25T07:30:34;13.05;;;7.85;;
66546;SDS011;53400;50.364;14.874;2023-04-25T07:33:06;11.35;;;7.15;;
66546;SDS011;53400;50.364;14.874;2023-04-25T07:35:37;12.82;;;7.28;;
66546;SDS011;53400;50.364;14.874;2023-04-25T07:38:10;13.48;;;8.23;;
66546;SDS011;53400;50.364;14.874;2023-04-25T07:40:39;12.68;;;7.68;;
66546;SDS011;53400;50.364;14.874;2023-04-25T07:43:11;12.45;;;7.40;;
66546;SDS011;53400;50.364;14.874;2023-04-25T07:45:49;15.98;;;9.30;;
66546;SDS011;53400;50.364;14.874;2023-04-25T07:48:25;13.82;;;8.13;;
66546;SDS011;53400;50.364;14.874;2023-04-25T07:50:59;14.30;;;8.73;;
66546;SDS011;53400;50.364;14.874;2023-04-25T07:53:34;14.32;;;8.77;;
66546;SDS011;53400;50.364;14.874;2023-04-25T07:56:06;14.18;;;8.30;;
66546;SDS011;53400;50.364;14.874;2023-04-25T07:58:37;12.63;;;8.15;;
66546;SDS011;53400;50.364;14.874;2023-04-25T08:01:06;13.60;;;8.32;;
66546;SDS011;53400;50.364;14.874;2023-04-25T08:03:42;13.02;;;7.82;;
66546;SDS011;53400;50.364;14.874;2023-04-25T08:06:12;11.35;;;7.60;;
66546;SDS011;53400;50.364;14.874;2023-04-25T08:08:38;12.10;;;7.32;;
66546;SDS011;53400;50.364;14.874;2023-04-25T08:11:06;13.85;;;7.80;;
66546;SDS011;53400;50.364;14.874;2023-04-25T08:13:35;15.18;;;8.57;;
66546;SDS011;53400;50.364;14.874;2023-04-25T08:16:07;14.32;;;8.30;;
66546;SDS011;53400;50.364;14.874;2023-04-25T08:18:38;14.45;;;8.30;;
66546;SDS011;53400;50.364;14.874;2023-04-25T08:21:19;12.80;;;7.57;;
66546;SDS011;53400;50.364;14.874;2023-04-25T08:23:53;12.52;;;7.50;;
66546;SDS011;53400;50.364;14.874;2023-04-25T08:26:21;11.57;;;7.40;;
66546;SDS011;53400;50.364;14.874;2023-04-25T08:28:51;11.13;;;7.38;;
66546;SDS011;53400;50.364;14.874;2023-04-25T08:31:22;13.13;;;7.40;;
66546;SDS011;53400;50.364;14.874;2023-04-25T08:33:52;10.93;;;7.10;;
66546;SDS011;53400;50.364;14.874;2023-04-25T08:36:23;12.90;;;7.50;;
66546;SDS011;53400;50.364;14.874;2023-04-25T08:38:54;11.27;;;6.57;;
66546;SDS011;53400;50.364;14.874;2023-04-25T08:41:26;12.50;;;7.28;;
66546;SDS011;53400;50.364;14.874;2023-04-25T08:43:56;11.13;;;6.78;;
66546;SDS011;53400;50.364;14.874;2023-04-25T08:46:30;11.38;;;6.78;;
66546;SDS011;53400;50.364;14.874;2023-04-25T08:49:08;13.50;;;7.75;;
66546;SDS011;53400;50.364;14.874;2023-04-25T08:51:36;11.05;;;7.45;;
66546;SDS011;53400;50.364;14.874;2023-04-25T08:54:10;11.63;;;7.35;;
66546;SDS011;53400;50.364;14.874;2023-04-25T08:56:45;11.75;;;7.20;;
66546;SDS011;53400;50.364;14.874;2023-04-25T08:59:20;12.95;;;7.10;;
66546;SDS011;53400;50.364;14.874;2023-04-25T09:01:52;10.55;;;6.95;;
66546;SDS011;53400;50.364;14.874;2023-04-25T09:04:23;11.15;;;7.13;;
66546;SDS011;53400;50.364;14.874;2023-04-25T09:06:57;11.77;;;6.97;;
66546;SDS011;53400;50.364;14.874;2023-04-25T09:09:29;10.90;;;7.40;;
66546;SDS011;53400;50.364;14.874;2023-04-25T09:11:57;10.48;;;7.13;;
66546;SDS011;53400;50.364;14.874;2023-04-25T09:14:28;10.70;;;7.28;;
66546;SDS011;53400;50.364;14.874;2023-04-25T09:17:01;10.23;;;6.85;;
66546;SDS011;53400;50.364;14.874;2023-04-25T09:19:38;9.20;;;6.68;;
66546;SDS011;53400;50.364;14.874;2023-04-25T09:22:07;10.52;;;6.85;;
66546;SDS011;53400;50.364;14.874;2023-04-25T09:24:38;10.07;;;5.97;;
66546;SDS011;53400;50.364;14.874;2023-04-25T09:27:22;7.97;;;4.90;;
66546;SDS011;53400;50.364;14.874;2023-04-25T09:30:01;8.25;;;5.22;;
66546;SDS011;53400;50.364;14.874;2023-04-25T09:32:42;7.65;;;4.97;;
66546;SDS011;53400;50.364;14.874;2023-04-25T09:35:43;9.93;;;6.53;;
66546;SDS011;53400;50.364;14.874;2023-04-25T09:38:40;10.65;;;6.68;;
66546;SDS011;53400;50.364;14.874;2023-04-25T09:41:22;10.13;;;5.95;;
66546;SDS011;53400;50.364;14.874;2023-04-25T09:43:53;10.10;;;6.15;;
66546;SDS011;53400;50.364;14.874;2023-04-25T09:46:32;9.30;;;6.28;;
66546;SDS011;53400;50.364;14.874;2023-04-25T09:49:07;8.43;;;5.47;;
66546;SDS011;53400;50.364;14.874;2023-04-25T09:51:40;10.50;;;6.20;;
66546;SDS011;53400;50.364;14.874;2023-04-25T09:54:29;10.95;;;6.57;;
66546;SDS011;53400;50.364;14.874;2023-04-25T09:56:59;12.30;;;6.55;;
66546;SDS011;53400;50.364;14.874;2023-04-25T09:59:39;8.90;;;6.45;;
66546;SDS011;53400;50.364;14.874;2023-04-25T10:02:11;8.80;;;6.22;;
66546;SDS011;53400;50.364;14.874;2023-04-25T10:04:52;9.80;;;6.60;;
66546;SDS011;53400;50.364;14.874;2023-04-25T10:07:23;9.48;;;6.20;;
66546;SDS011;53400;50.364;14.874;2023-04-25T10:09:58;8.25;;;5.75;;
66546;SDS011;53400;50.364;14.874;2023-04-25T10:12:35;9.85;;;6.22;;
66546;SDS011;53400;50.364;14.874;2023-04-25T10:15:09;9.52;;;5.68;;
66546;SDS011;53400;50.364;14.874;2023-04-25T10:17:44;8.23;;;6.40;;
66546;SDS011;53400;50.364;14.874;2023-04-25T10:20:13;8.75;;;5.97;;
66546;SDS011;53400;50.364;14.874;2023-04-25T10:22:44;10.20;;;6.35;;
66546;SDS011;53400;50.364;14.874;2023-04-25T10:25:20;8.90;;;6.18;;
66546;SDS011;53400;50.364;14.874;2023-04-25T10:27:48;10.20;;;5.78;;
66546;SDS011;53400;50.364;14.874;2023-04-25T10:30:17;8.82;;;6.28;;
66546;SDS011;53400;50.364;14.874;2023-04-25T10:32:55;10.55;;;6.22;;
66546;SDS011;53400;50.364;14.874;2023-04-25T10:35:32;10.25;;;7.22;;
66546;SDS011;53400;50.364;14.874;2023-04-25T10:38:13;9.48;;;6.00;;
66546;SDS011;53400;50.364;14.874;2023-04-25T10:40:54;9.40;;;6.10;;
66546;SDS011;53400;50.364;14.874;2023-04-25T10:43:35;10.07;;;6.43;;
66546;SDS011;53400;50.364;14.874;2023-04-25T10:46:13;10.18;;;7.13;;
66546;SDS011;53400;50.364;14.874;2023-04-25T10:48:44;10.50;;;6.60;;
66546;SDS011;53400;50.364;14.874;2023-04-25T10:51:20;9.80;;;6.13;;
66546;SDS011;53400;50.364;14.874;2023-04-25T10:54:04;11.55;;;5.70;;
66546;SDS011;53400;50.364;14.874;2023-04-25T10:56:38;11.20;;;5.63;;
66546;SDS011;53400;50.364;14.874;2023-04-25T10:59:18;8.82;;;5.28;;
66546;SDS011;53400;50.364;14.874;2023-04-25T11:01:58;7.88;;;5.18;;
66546;SDS011;53400;50.364;14.874;2023-04-25T11:04:33;9.93;;;5.68;;
66546;SDS011;53400;50.364;14.874;2023-04-25T11:07:07;9.45;;;5.38;;
66546;SDS011;53400;50.364;14.874;2023-04-25T11:09:48;10.07;;;5.50;;
66546;SDS011;53400;50.364;14.874;2023-04-25T11:12:17;9.18;;;5.68;;
66546;SDS011;53400;50.364;14.874;2023-04-25T11:14:47;10.15;;;6.10;;
66546;SDS011;53400;50.364;14.874;2023-04-25T11:17:20;9.02;;;5.85;;
66546;SDS011;53400;50.364;14.874;2023-04-25T11:19:53;8.80;;;5.67;;
66546;SDS011;53400;50.364;14.874;2023-04-25T11:22:23;10.70;;;6.00;;
66546;SDS011;53400;50.364;14.874;2023-04-25T11:24:53;11.25;;;5.32;;
66546;SDS011;53400;50.364;14.874;2023-04-25T11:27:26;10.38;;;6.30;;
66546;SDS011;53400;50.364;14.874;2023-04-25T11:29:54;11.27;;;6.82;;
66546;SDS011;53400;50.364;14.874;2023-04-25T11:32:38;13.30;;;8.15;;
66546;SDS011;53400;50.364;14.874;2023-04-25T11:35:13;12.75;;;7.43;;
66546;SDS011;53400;50.364;14.874;2023-04-25T11:37:46;12.85;;;7.18;;
66546;SDS011;53400;50.364;14.874;2023-04-25T11:40:18;13.57;;;7.93;;
66546;SDS011;53400;50.364;14.874;2023-04-25T11:42:59;10.60;;;6.60;;
66546;SDS011;53400;50.364;14.874;2023-04-25T11:45:29;12.55;;;8.23;;
66546;SDS011;53400;50.364;14.874;2023-04-25T11:48:13;13.13;;;9.15;;
66546;SDS011;53400;50.364;14.874;2023-04-25T11:50:43;12.55;;;7.70;;
66546;SDS011;53400;50.364;14.874;2023-04-25T11:53:13;11.93;;;8.05;;
66546;SDS011;53400;50.364;14.874;2023-04-25T11:55:43;11.18;;;7.90;;
66546;SDS011;53400;50.364;14.874;2023-04-25T11:58:18;14.95;;;8.48;;
66546;SDS011;53400;50.364;14.874;2023-04-25T12:00:57;14.23;;;7.53;;
66546;SDS011;53400;50.364;14.874;2023-04-25T12:03:33;11.07;;;7.43;;
66546;SDS011;53400;50.364;14.874;2023-04-25T12:06:14;12.43;;;7.68;;
66546;SDS011;53400;50.364;14.874;2023-04-25T12:08:58;12.77;;;7.60;;
66546;SDS011;53400;50.364;14.874;2023-04-25T12:11:44;12.60;;;8.10;;
66546;SDS011;53400;50.364;14.874;2023-04-25T12:14:20;12.63;;;7.88;;
66546;SDS011;53400;50.364;14.874;2023-04-25T12:16:56;14.48;;;7.72;;
66546;SDS011;53400;50.364;14.874;2023-04-25T12:19:32;12.15;;;7.70;;
66546;SDS011;53400;50.364;14.874;2023-04-25T12:24:57;11.82;;;6.85;;
66546;SDS011;53400;50.364;14.874;2023-04-25T12:27:32;12.15;;;8.15;;
66546;SDS011;53400;50.364;14.874;2023-04-25T12:30:11;11.80;;;7.15;;
66546;SDS011;53400;50.364;14.874;2023-04-25T12:32:41;11.73;;;7.13;;
66546;SDS011;53400;50.364;14.874;2023-04-25T12:35:23;10.50;;;7.32;;
66546;SDS011;53400;50.364;14.874;2023-04-25T12:38:02;13.70;;;7.20;;
66546;SDS011;53400;50.364;14.874;2023-04-25T12:40:37;10.63;;;7.20;;
66546;SDS011;53400;50.364;14.874;2023-04-25T12:43:11;12.68;;;7.32;;
66546;SDS011;53400;50.364;14.874;2023-04-25T12:45:55;13.07;;;7.72;;
66546;SDS011;53400;50.364;14.874;2023-04-25T12:48:41;13.00;;;7.10;;
66546;SDS011;53400;50.364;14.874;2023-04-25T12:51:15;11.68;;;9.40;;
66546;SDS011;53400;50.364;14.874;2023-04-25T12:53:42;10.93;;;6.70;;
66546;SDS011;53400;50.364;14.874;2023-04-25T12:56:12;10.65;;;7.15;;
66546;SDS011;53400;50.364;14.874;2023-04-25T12:58:49;10.23;;;6.57;;
66546;SDS011;53400;50.364;14.874;2023-04-25T13:01:18;11.80;;;6.80;;
66546;SDS011;53400;50.364;14.874;2023-04-25T13:03:47;9.73;;;5.78;;
66546;SDS011;53400;50.364;14.874;2023-04-25T13:06:17;9.90;;;6.10;;
66546;SDS011;53400;50.364;14.874;2023-04-25T13:08:54;9.13;;;6.60;;
66546;SDS011;53400;50.364;14.874;2023-04-25T13:11:23;8.10;;;4.93;;
66546;SDS011;53400;50.364;14.874;2023-04-25T13:13:53;7.63;;;4.40;;
66546;SDS011;53400;50.364;14.874;2023-04-25T13:16:22;8.15;;;4.45;;
66546;SDS011;53400;50.364;14.874;2023-04-25T13:18:53;6.72;;;4.45;;
66546;SDS011;53400;50.364;14.874;2023-04-25T13:21:29;6.75;;;4.20;;
66546;SDS011;53400;50.364;14.874;2023-04-25T13:23:58;8.07;;;4.68;;
66546;SDS011;53400;50.364;14.874;2023-04-25T13:26:28;7.25;;;4.55;;
66546;SDS011;53400;50.364;14.874;2023-04-25T13:28:59;9.10;;;5.30;;
66546;SDS011;53400;50.364;14.874;2023-04-25T13:31:30;11.60;;;6.32;;
66546;SDS011;53400;50.364;14.874;2023-04-25T13:33:57;8.75;;;4.82;;
66546;SDS011;53400;50.364;14.874;2023-04-25T13:36:25;7.43;;;4.70;;
66546;SDS011;53400;50.364;14.874;2023-04-25T13:39:00;7.05;;;4.03;;
66546;SDS011;53400;50.364;14.874;2023-04-25T13:41:27;7.63;;;4.53;;
66546;SDS011;53400;50.364;14.874;2023-04-25T13:43:57;7.07;;;4.25;;
66546;SDS011;53400;50.364;14.874;2023-04-25T13:46:26;5.88;;;3.75;;
66546;SDS011;53400;50.364;14.874;2023-04-25T13:48:54;5.93;;;3.70;;
66546;SDS011;53400;50.364;14.874;2023-04-25T13:51:25;6.93;;;3.72;;
66546;SDS011;53400;50.364;14.874;2023-04-25T13:53:52;7.00;;;3.90;;
66546;SDS011;53400;50.364;14.874;2023-04-25T13:56:20;6.20;;;3.38;;
66546;SDS011;53400;50.364;14.874;2023-04-25T13:58:49;6.50;;;3.70;;
66546;SDS011;53400;50.364;14.874;2023-04-25T14:01:22;5.68;;;3.28;;
66546;SDS011;53400;50.364;14.874;2023-04-25T14:03:51;5.80;;;4.03;;
66546;SDS011;53400;50.364;14.874;2023-04-25T14:06:20;7.93;;;3.90;;
66546;SDS011;53400;50.364;14.874;2023-04-25T14:08:52;8.00;;;4.47;;
66546;SDS011;53400;50.364;14.874;2023-04-25T14:11:30;6.53;;;3.92;;
66546;SDS011;53400;50.364;14.874;2023-04-25T14:14:01;6.30;;;4.05;;
66546;SDS011;53400;50.364;14.874;2023-04-25T14:16:33;9.18;;;5.60;;
66546;SDS011;53400;50.364;14.874;2023-04-25T14:19:02;7.78;;;5.57;;
66546;SDS011;53400;50.364;14.874;2023-04-25T14:21:34;7.40;;;4.40;;
66546;SDS011;53400;50.364;14.874;2023-04-25T14:24:06;7.80;;;5.57;;
66546;SDS011;53400;50.364;14.874;2023-04-25T14:26:39;8.15;;;5.00;;
66546;SDS011;53400;50.364;14.874;2023-04-25T14:29:09;9.02;;;5.40;;
66546;SDS011;53400;50.364;14.874;2023-04-25T14:31:39;7.55;;;5.10;;
66546;SDS011;53400;50.364;14.874;2023-04-25T14:34:08;10.77;;;4.82;;
66546;SDS011;53400;50.364;14.874;2023-04-25T14:36:36;10.27;;;5.63;;
66546;SDS011;53400;50.364;14.874;2023-04-25T14:39:04;8.27;;;5.03;;
66546;SDS011;53400;50.364;14.874;2023-04-25T14:41:43;9.13;;;5.28;;
66546;SDS011;53400;50.364;14.874;2023-04-25T14:44:23;8.20;;;5.32;;
66546;SDS011;53400;50.364;14.874;2023-04-25T14:47:11;9.50;;;5.50;;
66546;SDS011;53400;50.364;14.874;2023-04-25T14:49:41;9.93;;;6.00;;
66546;SDS011;53400;50.364;14.874;2023-04-25T14:52:09;11.48;;;6.30;;
66546;SDS011;53400;50.364;14.874;2023-04-25T14:54:37;9.00;;;5.10;;
66546;SDS011;53400;50.364;14.874;2023-04-25T14:57:08;8.60;;;5.90;;
66546;SDS011;53400;50.364;14.874;2023-04-25T14:59:36;10.52;;;6.53;;
66546;SDS011;53400;50.364;14.874;2023-04-25T15:02:07;9.05;;;5.50;;
66546;SDS011;53400;50.364;14.874;2023-04-25T15:04:36;10.38;;;6.47;;
66546;SDS011;53400;50.364;14.874;2023-04-25T15:07:07;9.68;;;5.70;;
66546;SDS011;53400;50.364;14.874;2023-04-25T15:09:35;9.57;;;5.90;;